sensor_id;sensor_type;location;lat;lon;timestamp;P1;durP1;ratioP1;P2;durP2;ratioP2
69596;SDS011;70000;51.176;-115.568;2024-03-08T00:01:57;4.70;;;1.70;;
69596;SDS011;70000;51.176;-115.568;2024-03-08T00:04:28;4.40;;;1.60;;
69596;SDS011;70000;51.176;-115.568;2024-03-08T00:06:57;4.90;;;1.80;;
69596;SDS011;70000;51.176;-115.568;2024-03-08T00:09:28;5.50;;;1.80;;
69596;SDS011;70000;51.176;-115.568;2024-03-08T00:11:59;5.70;;;1.50;;
69596;SDS011;70000;51.176;-115.568;2024-03-08T00:14:30;4.80;;;1.40;;
69596;SDS011;70000;51.176;-115.568;2024-03-08T00:16:59;4.60;;;1.40;;
69596;SDS011;70000;51.176;-115.568;2024-03-08T00:19:28;4.40;;;1.50;;
69596;SDS011;70000;51.176;-115.568;2024-03-08T00:21:57;4.50;;;1.10;;
69596;SDS011;70000;51.176;-115.568;2024-03-08T00:24:26;4.40;;;1.50;;
69596;SDS011;70000;51.176;-115.568;2024-03-08T00:26:55;4.10;;;1.20;;
69596;SDS011;70000;51.176;-115.568;2024-03-08T00:29:24;5.00;;;1.70;;
69596;SDS011;70000;51.176;-115.568;2024-03-08T00:31:53;5.90;;;2.60;;
69596;SDS011;70000;51.176;-115.568;2024-03-08T00:34:22;6.70;;;2.90;;
69596;SDS011;70000;51.176;-115.568;2024-03-08T00:36:51;5.90;;;2.50;;
69596;SDS011;70000;51.176;-115.568;2024-03-08T00:42:28;4.80;;;1.60;;
69596;SDS011;70000;51.176;-115.568;2024-03-08T00:44:57;5.30;;;1.90;;
69596;SDS011;70000;51.176;-115.568;2024-03-08T00:50:45;6.00;;;2.30;;
69596;SDS011;70000;51.176;-115.568;2024-03-08T00:53:14;5.50;;;2.20;;
69596;SDS011;70000;51.176;-115.568;2024-03-08T00:55:44;5.10;;;2.00;;
69596;SDS011;70000;51.176;-115.568;2024-03-08T00:58:14;5.90;;;2.10;;
69596;SDS011;70000;51.176;-115.568;2024-03-08T01:01:04;5.50;;;1.80;;
69596;SDS011;70000;51.176;-115.568;2024-03-08T01:03:33;4.60;;;1.50;;
69596;SDS011;70000;51.176;-115.568;2024-03-08T01:06:02;5.80;;;2.00;;
69596;SDS011;70000;51.176;-115.568;2024-03-08T01:08:32;5.40;;;1.50;;
69596;SDS011;70000;51.176;-115.568;2024-03-08T01:11:01;5.70;;;1.80;;
69596;SDS011;70000;51.176;-115.568;2024-03-08T01:13:31;4.80;;;1.60;;
69596;SDS011;70000;51.176;-115.568;2024-03-08T01:16:00;4.50;;;1.60;;
69596;SDS011;70000;51.176;-115.568;2024-03-08T01:18:29;4.40;;;1.50;;
69596;SDS011;70000;51.176;-115.568;2024-03-08T01:20:59;5.60;;;1.80;;
69596;SDS011;70000;51.176;-115.568;2024-03-08T01:30:43;11.90;;;4.40;;
69596;SDS011;70000;51.176;-115.568;2024-03-08T01:33:13;9.30;;;3.20;;
69596;SDS011;70000;51.176;-115.568;2024-03-08T01:35:42;7.60;;;2.60;;
69596;SDS011;70000;51.176;-115.568;2024-03-08T01:38:11;6.30;;;2.10;;
69596;SDS011;70000;51.176;-115.568;2024-03-08T01:40:43;7.10;;;2.80;;
69596;SDS011;70000;51.176;-115.568;2024-03-08T01:43:30;6.50;;;2.60;;
69596;SDS011;70000;51.176;-115.568;2024-03-08T01:46:00;6.20;;;2.40;;
69596;SDS011;70000;51.176;-115.568;2024-03-08T01:48:30;7.50;;;2.80;;
69596;SDS011;70000;51.176;-115.568;2024-03-08T01:51:00;7.60;;;3.30;;
69596;SDS011;70000;51.176;-115.568;2024-03-08T01:53:30;8.30;;;3.40;;
69596;SDS011;70000;51.176;-115.568;2024-03-08T01:56:03;6.70;;;2.60;;
69596;SDS011;70000;51.176;-115.568;2024-03-08T01:58:35;8.50;;;2.90;;
69596;SDS011;70000;51.176;-115.568;2024-03-08T02:01:05;7.50;;;3.00;;
69596;SDS011;70000;51.176;-115.568;2024-03-08T02:03:35;6.40;;;2.30;;
69596;SDS011;70000;51.176;-115.568;2024-03-08T02:06:04;7.00;;;3.00;;
69596;SDS011;70000;51.176;-115.568;2024-03-08T02:08:37;7.10;;;2.90;;
69596;SDS011;70000;51.176;-115.568;2024-03-08T02:11:06;12.30;;;3.30;;
69596;SDS011;70000;51.176;-115.568;2024-03-08T02:13:36;13.10;;;3.50;;
69596;SDS011;70000;51.176;-115.568;2024-03-08T02:16:05;11.10;;;3.20;;
69596;SDS011;70000;51.176;-115.568;2024-03-08T02:18:36;7.70;;;2.30;;
69596;SDS011;70000;51.176;-115.568;2024-03-08T02:21:07;8.00;;;2.20;;
69596;SDS011;70000;51.176;-115.568;2024-03-08T02:23:39;5.80;;;1.90;;
69596;SDS011;70000;51.176;-115.568;2024-03-08T02:26:08;6.50;;;2.50;;
69596;SDS011;70000;51.176;-115.568;2024-03-08T02:28:38;6.20;;;2.50;;
69596;SDS011;70000;51.176;-115.568;2024-03-08T02:31:08;6.70;;;2.60;;
69596;SDS011;70000;51.176;-115.568;2024-03-08T02:33:37;5.80;;;2.00;;
69596;SDS011;70000;51.176;-115.568;2024-03-08T02:39:45;5.70;;;1.70;;
69596;SDS011;70000;51.176;-115.568;2024-03-08T02:42:14;6.00;;;2.10;;
69596;SDS011;70000;51.176;-115.568;2024-03-08T02:45:04;5.30;;;2.20;;
69596;SDS011;70000;51.176;-115.568;2024-03-08T02:47:36;4.90;;;1.90;;
69596;SDS011;70000;51.176;-115.568;2024-03-08T02:50:06;5.50;;;2.00;;
69596;SDS011;70000;51.176;-115.568;2024-03-08T02:52:38;7.20;;;2.40;;
69596;SDS011;70000;51.176;-115.568;2024-03-08T02:55:07;8.40;;;3.50;;
69596;SDS011;70000;51.176;-115.568;2024-03-08T02:57:40;8.00;;;3.20;;
69596;SDS011;70000;51.176;-115.568;2024-03-08T03:03:20;5.10;;;1.50;;
69596;SDS011;70000;51.176;-115.568;2024-03-08T03:05:55;6.00;;;1.50;;
69596;SDS011;70000;51.176;-115.568;2024-03-08T03:08:24;4.40;;;1.50;;
69596;SDS011;70000;51.176;-115.568;2024-03-08T03:10:53;4.70;;;1.40;;
69596;SDS011;70000;51.176;-115.568;2024-03-08T03:13:25;6.80;;;1.70;;
69596;SDS011;70000;51.176;-115.568;2024-03-08T03:15:53;4.60;;;1.50;;
69596;SDS011;70000;51.176;-115.568;2024-03-08T03:18:22;5.00;;;1.50;;
69596;SDS011;70000;51.176;-115.568;2024-03-08T03:20:52;5.20;;;1.70;;
69596;SDS011;70000;51.176;-115.568;2024-03-08T03:23:21;5.40;;;2.00;;
69596;SDS011;70000;51.176;-115.568;2024-03-08T03:25:51;5.50;;;2.00;;
69596;SDS011;70000;51.176;-115.568;2024-03-08T03:28:20;5.10;;;1.70;;
69596;SDS011;70000;51.176;-115.568;2024-03-08T03:30:51;4.40;;;1.40;;
69596;SDS011;70000;51.176;-115.568;2024-03-08T03:33:21;5.10;;;1.60;;
69596;SDS011;70000;51.176;-115.568;2024-03-08T03:35:50;6.90;;;1.80;;
69596;SDS011;70000;51.176;-115.568;2024-03-08T03:38:20;5.90;;;1.80;;
69596;SDS011;70000;51.176;-115.568;2024-03-08T03:40:52;4.60;;;1.30;;
69596;SDS011;70000;51.176;-115.568;2024-03-08T03:43:28;5.30;;;1.70;;
69596;SDS011;70000;51.176;-115.568;2024-03-08T03:45:57;5.50;;;1.30;;
69596;SDS011;70000;51.176;-115.568;2024-03-08T03:48:26;6.00;;;1.90;;
69596;SDS011;70000;51.176;-115.568;2024-03-08T03:50:55;4.80;;;1.60;;
69596;SDS011;70000;51.176;-115.568;2024-03-08T03:53:24;5.60;;;1.50;;
69596;SDS011;70000;51.176;-115.568;2024-03-08T03:55:53;3.90;;;1.10;;
69596;SDS011;70000;51.176;-115.568;2024-03-08T03:58:22;4.80;;;1.50;;
69596;SDS011;70000;51.176;-115.568;2024-03-08T04:00:51;5.00;;;1.50;;
69596;SDS011;70000;51.176;-115.568;2024-03-08T04:03:20;4.60;;;1.60;;
69596;SDS011;70000;51.176;-115.568;2024-03-08T04:05:49;5.80;;;1.70;;
69596;SDS011;70000;51.176;-115.568;2024-03-08T04:08:18;5.70;;;1.70;;
69596;SDS011;70000;51.176;-115.568;2024-03-08T04:10:50;5.30;;;1.70;;
69596;SDS011;70000;51.176;-115.568;2024-03-08T04:13:19;4.80;;;1.40;;
69596;SDS011;70000;51.176;-115.568;2024-03-08T04:15:49;6.00;;;1.70;;
69596;SDS011;70000;51.176;-115.568;2024-03-08T04:18:18;5.20;;;1.40;;
69596;SDS011;70000;51.176;-115.568;2024-03-08T04:20:47;4.90;;;1.60;;
69596;SDS011;70000;51.176;-115.568;2024-03-08T04:23:18;5.80;;;1.60;;
69596;SDS011;70000;51.176;-115.568;2024-03-08T04:25:47;7.50;;;3.20;;
69596;SDS011;70000;51.176;-115.568;2024-03-08T04:28:16;5.90;;;2.00;;
69596;SDS011;70000;51.176;-115.568;2024-03-08T04:30:45;5.40;;;1.90;;
69596;SDS011;70000;51.176;-115.568;2024-03-08T04:33:14;3.90;;;1.10;;
69596;SDS011;70000;51.176;-115.568;2024-03-08T04:35:46;4.50;;;1.40;;
69596;SDS011;70000;51.176;-115.568;2024-03-08T04:38:15;4.30;;;1.30;;
69596;SDS011;70000;51.176;-115.568;2024-03-08T04:40:44;4.30;;;1.30;;
69596;SDS011;70000;51.176;-115.568;2024-03-08T04:43:13;4.60;;;1.50;;
69596;SDS011;70000;51.176;-115.568;2024-03-08T04:45:42;4.70;;;1.50;;
69596;SDS011;70000;51.176;-115.568;2024-03-08T04:48:12;5.70;;;1.70;;
69596;SDS011;70000;51.176;-115.568;2024-03-08T04:50:41;6.70;;;1.90;;
69596;SDS011;70000;51.176;-115.568;2024-03-08T04:53:10;5.40;;;1.90;;
69596;SDS011;70000;51.176;-115.568;2024-03-08T04:58:47;4.40;;;1.40;;
69596;SDS011;70000;51.176;-115.568;2024-03-08T05:01:19;5.60;;;1.30;;
69596;SDS011;70000;51.176;-115.568;2024-03-08T05:03:48;4.80;;;1.50;;
69596;SDS011;70000;51.176;-115.568;2024-03-08T05:06:18;5.10;;;1.70;;
69596;SDS011;70000;51.176;-115.568;2024-03-08T05:08:48;10.30;;;5.00;;
69596;SDS011;70000;51.176;-115.568;2024-03-08T05:11:19;6.10;;;2.30;;
69596;SDS011;70000;51.176;-115.568;2024-03-08T05:14:09;4.60;;;1.40;;
69596;SDS011;70000;51.176;-115.568;2024-03-08T05:16:39;5.20;;;1.50;;
69596;SDS011;70000;51.176;-115.568;2024-03-08T05:19:08;4.50;;;1.30;;
69596;SDS011;70000;51.176;-115.568;2024-03-08T05:21:37;4.30;;;1.30;;
69596;SDS011;70000;51.176;-115.568;2024-03-08T05:24:07;4.40;;;1.20;;
69596;SDS011;70000;51.176;-115.568;2024-03-08T05:26:38;6.90;;;1.70;;
69596;SDS011;70000;51.176;-115.568;2024-03-08T05:29:08;6.50;;;2.00;;
69596;SDS011;70000;51.176;-115.568;2024-03-08T05:31:51;4.70;;;1.40;;
69596;SDS011;70000;51.176;-115.568;2024-03-08T05:34:21;4.10;;;1.30;;
69596;SDS011;70000;51.176;-115.568;2024-03-08T05:36:50;3.60;;;1.10;;
69596;SDS011;70000;51.176;-115.568;2024-03-08T05:39:39;4.00;;;1.10;;
69596;SDS011;70000;51.176;-115.568;2024-03-08T05:42:08;3.90;;;1.10;;
69596;SDS011;70000;51.176;-115.568;2024-03-08T05:48:13;4.50;;;1.30;;
69596;SDS011;70000;51.176;-115.568;2024-03-08T05:50:44;4.30;;;1.30;;
69596;SDS011;70000;51.176;-115.568;2024-03-08T05:53:13;3.80;;;1.10;;
69596;SDS011;70000;51.176;-115.568;2024-03-08T05:55:44;4.50;;;1.20;;
69596;SDS011;70000;51.176;-115.568;2024-03-08T05:58:14;4.20;;;1.50;;
69596;SDS011;70000;51.176;-115.568;2024-03-08T06:00:43;4.70;;;1.20;;
69596;SDS011;70000;51.176;-115.568;2024-03-08T06:03:18;4.70;;;1.20;;
69596;SDS011;70000;51.176;-115.568;2024-03-08T06:05:49;4.50;;;1.40;;
69596;SDS011;70000;51.176;-115.568;2024-03-08T06:08:22;3.80;;;1.20;;
69596;SDS011;70000;51.176;-115.568;2024-03-08T06:10:58;3.80;;;1.10;;
69596;SDS011;70000;51.176;-115.568;2024-03-08T06:13:27;4.50;;;1.20;;
69596;SDS011;70000;51.176;-115.568;2024-03-08T06:15:59;4.00;;;1.20;;
69596;SDS011;70000;51.176;-115.568;2024-03-08T06:22:53;6.10;;;1.30;;
69596;SDS011;70000;51.176;-115.568;2024-03-08T06:25:23;4.20;;;1.40;;
69596;SDS011;70000;51.176;-115.568;2024-03-08T06:27:53;4.90;;;1.40;;
69596;SDS011;70000;51.176;-115.568;2024-03-08T06:30:22;4.10;;;1.30;;
69596;SDS011;70000;51.176;-115.568;2024-03-08T06:32:51;3.80;;;1.20;;
69596;SDS011;70000;51.176;-115.568;2024-03-08T06:35:20;6.30;;;1.30;;
69596;SDS011;70000;51.176;-115.568;2024-03-08T06:37:49;4.20;;;1.10;;
69596;SDS011;70000;51.176;-115.568;2024-03-08T06:40:18;3.90;;;1.10;;
69596;SDS011;70000;51.176;-115.568;2024-03-08T06:42:47;4.00;;;1.20;;
69596;SDS011;70000;51.176;-115.568;2024-03-08T06:45:16;3.80;;;1.00;;
69596;SDS011;70000;51.176;-115.568;2024-03-08T06:47:49;4.10;;;1.50;;
69596;SDS011;70000;51.176;-115.568;2024-03-08T06:50:18;3.90;;;1.10;;
69596;SDS011;70000;51.176;-115.568;2024-03-08T06:52:48;3.90;;;1.10;;
69596;SDS011;70000;51.176;-115.568;2024-03-08T06:55:21;4.30;;;1.30;;
69596;SDS011;70000;51.176;-115.568;2024-03-08T06:57:51;4.30;;;1.20;;
69596;SDS011;70000;51.176;-115.568;2024-03-08T07:00:20;3.80;;;1.10;;
69596;SDS011;70000;51.176;-115.568;2024-03-08T07:02:55;4.00;;;1.20;;
69596;SDS011;70000;51.176;-115.568;2024-03-08T07:05:30;4.40;;;1.20;;
69596;SDS011;70000;51.176;-115.568;2024-03-08T07:08:03;4.90;;;1.20;;
69596;SDS011;70000;51.176;-115.568;2024-03-08T07:10:34;4.50;;;1.50;;
69596;SDS011;70000;51.176;-115.568;2024-03-08T07:13:05;4.70;;;1.20;;
69596;SDS011;70000;51.176;-115.568;2024-03-08T07:15:34;4.90;;;1.10;;
69596;SDS011;70000;51.176;-115.568;2024-03-08T07:18:03;4.90;;;1.20;;
69596;SDS011;70000;51.176;-115.568;2024-03-08T07:20:34;4.60;;;1.20;;
69596;SDS011;70000;51.176;-115.568;2024-03-08T07:23:03;4.40;;;1.20;;
69596;SDS011;70000;51.176;-115.568;2024-03-08T07:25:33;4.20;;;1.20;;
69596;SDS011;70000;51.176;-115.568;2024-03-08T07:28:03;4.40;;;1.40;;
69596;SDS011;70000;51.176;-115.568;2024-03-08T07:30:39;4.00;;;1.30;;
69596;SDS011;70000;51.176;-115.568;2024-03-08T07:33:12;4.60;;;1.30;;
69596;SDS011;70000;51.176;-115.568;2024-03-08T07:35:42;3.60;;;1.20;;
69596;SDS011;70000;51.176;-115.568;2024-03-08T07:38:12;5.00;;;1.50;;
69596;SDS011;70000;51.176;-115.568;2024-03-08T07:40:45;4.10;;;1.20;;
69596;SDS011;70000;51.176;-115.568;2024-03-08T07:43:14;3.70;;;1.00;;
69596;SDS011;70000;51.176;-115.568;2024-03-08T07:45:44;4.40;;;1.20;;
69596;SDS011;70000;51.176;-115.568;2024-03-08T07:48:13;4.40;;;1.20;;
69596;SDS011;70000;51.176;-115.568;2024-03-08T07:50:42;3.90;;;1.10;;
69596;SDS011;70000;51.176;-115.568;2024-03-08T07:53:11;4.00;;;1.00;;
69596;SDS011;70000;51.176;-115.568;2024-03-08T07:55:41;3.70;;;1.10;;
69596;SDS011;70000;51.176;-115.568;2024-03-08T07:58:13;3.30;;;0.90;;
69596;SDS011;70000;51.176;-115.568;2024-03-08T08:00:42;3.90;;;1.20;;
69596;SDS011;70000;51.176;-115.568;2024-03-08T08:03:12;3.90;;;1.20;;
69596;SDS011;70000;51.176;-115.568;2024-03-08T08:05:42;4.00;;;1.20;;
69596;SDS011;70000;51.176;-115.568;2024-03-08T08:08:11;3.80;;;1.00;;
69596;SDS011;70000;51.176;-115.568;2024-03-08T08:10:40;3.90;;;0.90;;
69596;SDS011;70000;51.176;-115.568;2024-03-08T08:13:10;3.90;;;1.10;;
69596;SDS011;70000;51.176;-115.568;2024-03-08T08:15:39;3.80;;;1.20;;
69596;SDS011;70000;51.176;-115.568;2024-03-08T08:18:09;3.90;;;1.10;;
69596;SDS011;70000;51.176;-115.568;2024-03-08T08:20:38;4.10;;;1.10;;
69596;SDS011;70000;51.176;-115.568;2024-03-08T08:23:07;4.80;;;1.10;;
69596;SDS011;70000;51.176;-115.568;2024-03-08T08:25:38;3.60;;;1.10;;
69596;SDS011;70000;51.176;-115.568;2024-03-08T08:28:07;4.70;;;1.20;;
69596;SDS011;70000;51.176;-115.568;2024-03-08T08:30:36;4.10;;;1.10;;
69596;SDS011;70000;51.176;-115.568;2024-03-08T08:33:05;3.90;;;1.10;;
69596;SDS011;70000;51.176;-115.568;2024-03-08T08:35:39;3.10;;;0.80;;
69596;SDS011;70000;51.176;-115.568;2024-03-08T08:38:08;3.40;;;0.90;;
69596;SDS011;70000;51.176;-115.568;2024-03-08T08:40:37;3.90;;;1.10;;
69596;SDS011;70000;51.176;-115.568;2024-03-08T08:43:06;3.80;;;1.20;;
69596;SDS011;70000;51.176;-115.568;2024-03-08T08:45:35;3.70;;;1.10;;
69596;SDS011;70000;51.176;-115.568;2024-03-08T08:48:05;3.10;;;0.90;;
69596;SDS011;70000;51.176;-115.568;2024-03-08T08:50:34;4.00;;;1.10;;
69596;SDS011;70000;51.176;-115.568;2024-03-08T08:53:04;4.10;;;1.20;;
69596;SDS011;70000;51.176;-115.568;2024-03-08T08:55:35;3.30;;;0.90;;
69596;SDS011;70000;51.176;-115.568;2024-03-08T08:58:04;4.90;;;1.10;;
69596;SDS011;70000;51.176;-115.568;2024-03-08T09:00:35;4.30;;;1.50;;
69596;SDS011;70000;51.176;-115.568;2024-03-08T09:03:04;4.50;;;1.40;;
69596;SDS011;70000;51.176;-115.568;2024-03-08T09:05:35;6.00;;;1.30;;
69596;SDS011;70000;51.176;-115.568;2024-03-08T09:08:08;3.60;;;1.00;;
69596;SDS011;70000;51.176;-115.568;2024-03-08T09:10:38;3.90;;;1.10;;
69596;SDS011;70000;51.176;-115.568;2024-03-08T09:13:07;4.30;;;1.30;;
69596;SDS011;70000;51.176;-115.568;2024-03-08T09:15:48;4.30;;;1.00;;
69596;SDS011;70000;51.176;-115.568;2024-03-08T09:18:18;4.00;;;1.20;;
69596;SDS011;70000;51.176;-115.568;2024-03-08T09:20:47;3.90;;;1.20;;
69596;SDS011;70000;51.176;-115.568;2024-03-08T09:23:19;3.50;;;0.90;;
69596;SDS011;70000;51.176;-115.568;2024-03-08T09:25:49;4.70;;;1.20;;
69596;SDS011;70000;51.176;-115.568;2024-03-08T09:28:19;4.80;;;1.50;;
69596;SDS011;70000;51.176;-115.568;2024-03-08T09:30:49;4.50;;;1.10;;
69596;SDS011;70000;51.176;-115.568;2024-03-08T09:33:26;3.20;;;1.00;;
69596;SDS011;70000;51.176;-115.568;2024-03-08T09:35:58;3.80;;;1.20;;
69596;SDS011;70000;51.176;-115.568;2024-03-08T09:38:30;3.70;;;1.10;;
69596;SDS011;70000;51.176;-115.568;2024-03-08T09:41:00;3.80;;;1.20;;
69596;SDS011;70000;51.176;-115.568;2024-03-08T09:43:30;4.60;;;1.50;;
69596;SDS011;70000;51.176;-115.568;2024-03-08T09:46:01;4.90;;;1.10;;
69596;SDS011;70000;51.176;-115.568;2024-03-08T09:48:32;4.40;;;1.20;;
69596;SDS011;70000;51.176;-115.568;2024-03-08T09:51:04;4.00;;;1.20;;
69596;SDS011;70000;51.176;-115.568;2024-03-08T09:53:34;3.80;;;1.20;;
69596;SDS011;70000;51.176;-115.568;2024-03-08T09:56:04;3.90;;;1.10;;
69596;SDS011;70000;51.176;-115.568;2024-03-08T09:58:34;4.60;;;1.30;;
69596;SDS011;70000;51.176;-115.568;2024-03-08T10:01:04;4.20;;;1.20;;
69596;SDS011;70000;51.176;-115.568;2024-03-08T10:03:33;3.70;;;1.10;;
69596;SDS011;70000;51.176;-115.568;2024-03-08T10:06:04;3.70;;;1.10;;
69596;SDS011;70000;51.176;-115.568;2024-03-08T10:08:34;5.80;;;1.70;;
69596;SDS011;70000;51.176;-115.568;2024-03-08T10:11:04;3.70;;;1.20;;
69596;SDS011;70000;51.176;-115.568;2024-03-08T10:13:33;4.20;;;1.20;;
69596;SDS011;70000;51.176;-115.568;2024-03-08T10:16:03;4.50;;;1.20;;
69596;SDS011;70000;51.176;-115.568;2024-03-08T10:18:33;4.00;;;1.10;;
69596;SDS011;70000;51.176;-115.568;2024-03-08T10:21:07;3.50;;;1.10;;
69596;SDS011;70000;51.176;-115.568;2024-03-08T10:23:43;3.50;;;1.00;;
69596;SDS011;70000;51.176;-115.568;2024-03-08T10:26:16;5.00;;;1.20;;
69596;SDS011;70000;51.176;-115.568;2024-03-08T10:28:51;3.50;;;1.10;;
69596;SDS011;70000;51.176;-115.568;2024-03-08T10:31:23;3.20;;;0.90;;
69596;SDS011;70000;51.176;-115.568;2024-03-08T10:33:53;4.00;;;1.20;;
69596;SDS011;70000;51.176;-115.568;2024-03-08T10:36:22;3.30;;;1.00;;
69596;SDS011;70000;51.176;-115.568;2024-03-08T10:39:35;4.00;;;1.10;;
69596;SDS011;70000;51.176;-115.568;2024-03-08T10:42:05;4.40;;;1.30;;
69596;SDS011;70000;51.176;-115.568;2024-03-08T10:44:51;3.90;;;1.10;;
69596;SDS011;70000;51.176;-115.568;2024-03-08T10:47:29;4.20;;;1.30;;
69596;SDS011;70000;51.176;-115.568;2024-03-08T10:52:40;3.40;;;1.00;;
69596;SDS011;70000;51.176;-115.568;2024-03-08T10:55:09;4.30;;;1.10;;
69596;SDS011;70000;51.176;-115.568;2024-03-08T10:58:00;3.50;;;1.00;;
69596;SDS011;70000;51.176;-115.568;2024-03-08T11:00:31;3.60;;;1.10;;
69596;SDS011;70000;51.176;-115.568;2024-03-08T11:03:00;3.70;;;1.00;;
69596;SDS011;70000;51.176;-115.568;2024-03-08T11:05:41;3.10;;;0.80;;
69596;SDS011;70000;51.176;-115.568;2024-03-08T11:08:20;3.90;;;1.20;;
69596;SDS011;70000;51.176;-115.568;2024-03-08T11:10:55;3.60;;;1.00;;
69596;SDS011;70000;51.176;-115.568;2024-03-08T11:13:38;3.60;;;1.00;;
69596;SDS011;70000;51.176;-115.568;2024-03-08T11:16:37;3.70;;;0.90;;
69596;SDS011;70000;51.176;-115.568;2024-03-08T11:21:43;3.70;;;1.10;;
69596;SDS011;70000;51.176;-115.568;2024-03-08T11:24:13;4.10;;;1.10;;
69596;SDS011;70000;51.176;-115.568;2024-03-08T11:26:45;3.00;;;0.80;;
69596;SDS011;70000;51.176;-115.568;2024-03-08T11:32:15;3.40;;;1.00;;
69596;SDS011;70000;51.176;-115.568;2024-03-08T11:34:50;4.50;;;1.30;;
69596;SDS011;70000;51.176;-115.568;2024-03-08T11:37:20;3.70;;;0.90;;
69596;SDS011;70000;51.176;-115.568;2024-03-08T11:39:52;3.90;;;1.10;;
69596;SDS011;70000;51.176;-115.568;2024-03-08T11:42:27;4.20;;;1.10;;
69596;SDS011;70000;51.176;-115.568;2024-03-08T11:44:56;3.90;;;1.30;;
69596;SDS011;70000;51.176;-115.568;2024-03-08T11:47:26;3.80;;;1.20;;
69596;SDS011;70000;51.176;-115.568;2024-03-08T11:49:55;4.00;;;1.20;;
69596;SDS011;70000;51.176;-115.568;2024-03-08T11:54:58;4.40;;;1.10;;
69596;SDS011;70000;51.176;-115.568;2024-03-08T11:57:27;3.50;;;1.10;;
69596;SDS011;70000;51.176;-115.568;2024-03-08T11:59:58;4.40;;;1.20;;
69596;SDS011;70000;51.176;-115.568;2024-03-08T12:02:36;3.90;;;1.30;;
69596;SDS011;70000;51.176;-115.568;2024-03-08T12:05:10;3.60;;;1.00;;
69596;SDS011;70000;51.176;-115.568;2024-03-08T12:07:44;3.90;;;1.10;;
69596;SDS011;70000;51.176;-115.568;2024-03-08T12:10:26;4.00;;;1.40;;
69596;SDS011;70000;51.176;-115.568;2024-03-08T12:12:58;3.60;;;1.10;;
69596;SDS011;70000;51.176;-115.568;2024-03-08T12:15:28;3.70;;;1.00;;
69596;SDS011;70000;51.176;-115.568;2024-03-08T12:21:13;5.00;;;1.40;;
69596;SDS011;70000;51.176;-115.568;2024-03-08T12:23:45;3.50;;;1.00;;
69596;SDS011;70000;51.176;-115.568;2024-03-08T12:26:25;3.80;;;1.20;;
69596;SDS011;70000;51.176;-115.568;2024-03-08T12:32:36;4.20;;;1.10;;
69596;SDS011;70000;51.176;-115.568;2024-03-08T12:35:07;4.60;;;1.20;;
69596;SDS011;70000;51.176;-115.568;2024-03-08T12:37:37;4.20;;;1.30;;
69596;SDS011;70000;51.176;-115.568;2024-03-08T12:40:09;3.80;;;1.20;;
69596;SDS011;70000;51.176;-115.568;2024-03-08T12:42:38;3.50;;;1.00;;
69596;SDS011;70000;51.176;-115.568;2024-03-08T12:45:06;4.20;;;1.30;;
69596;SDS011;70000;51.176;-115.568;2024-03-08T12:47:59;4.00;;;1.00;;
69596;SDS011;70000;51.176;-115.568;2024-03-08T12:50:29;4.30;;;1.20;;
69596;SDS011;70000;51.176;-115.568;2024-03-08T12:52:58;4.40;;;0.80;;
69596;SDS011;70000;51.176;-115.568;2024-03-08T12:55:27;4.90;;;1.40;;
69596;SDS011;70000;51.176;-115.568;2024-03-08T12:57:56;3.80;;;1.20;;
69596;SDS011;70000;51.176;-115.568;2024-03-08T13:00:26;4.40;;;1.20;;
69596;SDS011;70000;51.176;-115.568;2024-03-08T13:09:58;3.70;;;1.10;;
69596;SDS011;70000;51.176;-115.568;2024-03-08T13:12:27;4.70;;;1.10;;
69596;SDS011;70000;51.176;-115.568;2024-03-08T13:14:57;3.60;;;1.00;;
69596;SDS011;70000;51.176;-115.568;2024-03-08T13:17:26;3.70;;;1.10;;
69596;SDS011;70000;51.176;-115.568;2024-03-08T13:23:45;4.10;;;1.00;;
69596;SDS011;70000;51.176;-115.568;2024-03-08T13:26:16;3.90;;;1.10;;
69596;SDS011;70000;51.176;-115.568;2024-03-08T13:28:48;4.30;;;1.30;;
69596;SDS011;70000;51.176;-115.568;2024-03-08T13:31:21;4.30;;;1.20;;
69596;SDS011;70000;51.176;-115.568;2024-03-08T13:33:50;4.10;;;1.30;;
69596;SDS011;70000;51.176;-115.568;2024-03-08T13:36:25;3.60;;;1.10;;
69596;SDS011;70000;51.176;-115.568;2024-03-08T13:47:46;4.10;;;1.20;;
69596;SDS011;70000;51.176;-115.568;2024-03-08T13:50:18;3.40;;;1.00;;
69596;SDS011;70000;51.176;-115.568;2024-03-08T13:52:50;4.60;;;1.10;;
69596;SDS011;70000;51.176;-115.568;2024-03-08T13:55:23;3.50;;;1.00;;
69596;SDS011;70000;51.176;-115.568;2024-03-08T13:57:55;3.50;;;1.00;;
69596;SDS011;70000;51.176;-115.568;2024-03-08T14:00:25;3.90;;;1.10;;
69596;SDS011;70000;51.176;-115.568;2024-03-08T14:06:30;4.60;;;1.20;;
69596;SDS011;70000;51.176;-115.568;2024-03-08T14:08:59;4.20;;;1.10;;
69596;SDS011;70000;51.176;-115.568;2024-03-08T14:11:30;3.60;;;1.00;;
69596;SDS011;70000;51.176;-115.568;2024-03-08T14:14:02;4.30;;;1.10;;
69596;SDS011;70000;51.176;-115.568;2024-03-08T14:16:30;3.50;;;1.10;;
69596;SDS011;70000;51.176;-115.568;2024-03-08T14:18:59;3.80;;;1.10;;
69596;SDS011;70000;51.176;-115.568;2024-03-08T14:21:33;4.40;;;1.00;;
69596;SDS011;70000;51.176;-115.568;2024-03-08T14:24:02;5.10;;;1.20;;
69596;SDS011;70000;51.176;-115.568;2024-03-08T14:26:33;3.30;;;0.90;;
69596;SDS011;70000;51.176;-115.568;2024-03-08T14:29:02;4.30;;;1.60;;
69596;SDS011;70000;51.176;-115.568;2024-03-08T14:31:33;3.60;;;1.10;;
69596;SDS011;70000;51.176;-115.568;2024-03-08T14:34:04;4.10;;;1.00;;
69596;SDS011;70000;51.176;-115.568;2024-03-08T14:36:35;4.20;;;1.10;;
69596;SDS011;70000;51.176;-115.568;2024-03-08T14:39:04;3.80;;;1.00;;
69596;SDS011;70000;51.176;-115.568;2024-03-08T14:41:38;4.00;;;1.10;;
69596;SDS011;70000;51.176;-115.568;2024-03-08T14:44:08;3.80;;;0.90;;
69596;SDS011;70000;51.176;-115.568;2024-03-08T14:46:37;4.30;;;0.90;;
69596;SDS011;70000;51.176;-115.568;2024-03-08T14:49:08;4.10;;;1.10;;
69596;SDS011;70000;51.176;-115.568;2024-03-08T14:51:37;4.00;;;1.00;;
69596;SDS011;70000;51.176;-115.568;2024-03-08T14:54:07;4.90;;;1.40;;
69596;SDS011;70000;51.176;-115.568;2024-03-08T14:56:39;3.70;;;0.90;;
69596;SDS011;70000;51.176;-115.568;2024-03-08T14:59:11;5.50;;;1.10;;
69596;SDS011;70000;51.176;-115.568;2024-03-08T15:01:41;5.10;;;1.10;;
69596;SDS011;70000;51.176;-115.568;2024-03-08T15:04:11;4.40;;;1.10;;
69596;SDS011;70000;51.176;-115.568;2024-03-08T15:06:41;5.10;;;1.10;;
69596;SDS011;70000;51.176;-115.568;2024-03-08T15:09:18;3.70;;;1.00;;
69596;SDS011;70000;51.176;-115.568;2024-03-08T15:11:48;5.60;;;1.30;;
69596;SDS011;70000;51.176;-115.568;2024-03-08T15:14:20;4.80;;;1.10;;
69596;SDS011;70000;51.176;-115.568;2024-03-08T15:16:53;3.70;;;1.20;;
69596;SDS011;70000;51.176;-115.568;2024-03-08T15:19:23;4.30;;;1.30;;
69596;SDS011;70000;51.176;-115.568;2024-03-08T15:21:53;5.30;;;1.60;;
69596;SDS011;70000;51.176;-115.568;2024-03-08T15:24:24;4.10;;;1.00;;
69596;SDS011;70000;51.176;-115.568;2024-03-08T15:26:54;3.50;;;0.90;;
69596;SDS011;70000;51.176;-115.568;2024-03-08T15:29:25;4.90;;;1.50;;
69596;SDS011;70000;51.176;-115.568;2024-03-08T15:31:54;4.00;;;1.10;;
69596;SDS011;70000;51.176;-115.568;2024-03-08T15:34:23;4.20;;;1.20;;
69596;SDS011;70000;51.176;-115.568;2024-03-08T15:36:58;4.10;;;1.10;;
69596;SDS011;70000;51.176;-115.568;2024-03-08T15:39:30;4.40;;;1.30;;
69596;SDS011;70000;51.176;-115.568;2024-03-08T15:42:01;4.10;;;1.20;;
69596;SDS011;70000;51.176;-115.568;2024-03-08T15:44:30;4.30;;;1.30;;